This is the latest recevied weather packets stored in our database for station/object VK5KX. If no packets are shown the sender has not sent any weather packets the latest 1 day(s).
| Time | Temp. | Humidity | Pressure | Rain* | Wind** | Luminosity | Snow |
|---|---|---|---|---|---|---|---|
| 1778094006 | 12.22° C | 71% | 1027.7 hPa | 0 mm | - | - | - |
| 1778090404 | 12.22° C | 69% | 1027.3 hPa | 0 mm | - | - | - |
| 1778089561 | 11.67° C | 72% | 1027.3 hPa | 0 mm | - | - | - |
| 1778086862 | 11.67° C | 70% | 1027.4 hPa | 0 mm | - | - | - |
| 1778085051 | 12.78° C | 66% | 1027.6 hPa | 0 mm | - | - | - |
| 1778080541 | 13.33° C | 60% | 1027.2 hPa | 0 mm | - | - | - |
| 1778079640 | 13.33° C | 60% | 1027.1 hPa | 0 mm | - | - | - |
| 1778078738 | 13.33° C | 62% | 1027.1 hPa | 0 mm | - | - | - |
| 1778077837 | 13.33° C | 64% | 1027.1 hPa | 0 mm | - | - | - |
| 1778076031 | 13.33° C | 66% | 1026.9 hPa | 0 mm | - | - | - |
| 1778073333 | 13.89° C | 69% | 1026.6 hPa | 0 mm | - | - | - |
| 1778069719 | 14.44° C | 72% | 1026 hPa | 0 mm | - | - | - |
| 1778063418 | 15° C | 81% | 1024.9 hPa | 0 mm | - | - | - |
| 1778062508 | 15° C | 82% | 1024.8 hPa | 0 mm | - | - | - |
| 1778057160 | 16.11° C | 84% | 1023.3 hPa | 0 mm | - | - | - |
| 1778056260 | 16.67° C | 82% | 1023.1 hPa | 0 mm | - | - | - |
| 1778055362 | 16.67° C | 76% | 1022.8 hPa | 0 mm | - | - | - |
| 1778051757 | 17.78° C | 71% | 1022.4 hPa | 0 mm | - | - | - |
| 1778050876 | 17.78° C | 71% | 1022.3 hPa | 0 mm | - | - | - |
| 1778049969 | 17.78° C | 71% | 1022.2 hPa | 0 mm | - | - | - |
| 1778049056 | 18.33° C | 71% | 1022.1 hPa | 0 mm | - | - | - |
| 1778048157 | 18.33° C | 72% | 1022.1 hPa | 0 mm | - | - | - |
| 1778047258 | 17.78° C | 76% | 1022 hPa | 0 mm | - | - | - |
| 1778046354 | 17.22° C | 80% | 1022 hPa | 0 mm | - | - | - |
| 1778042758 | 17.22° C | 82% | 1021.9 hPa | 0.25 mm | - | - | - |
* Rain latest hour (hover to see other rain measurements)
** Current wind speed in m/s (hover to see current wind gust speed)